Boundary Cnty AP, Bonners Fer, ID

3:06 AM PDT on July 27, 2017 (GMT -0700)
Boundary Cnty AP, Bonners Fer

Weather History for K65S - February, 2014

Change the Weather History Date:

Sunday, February 16, 2014

  Actual Average (KSZT) Record (KSZT)
Temperature  
Mean Temperature 36 °F -  
Max Temperature 41 °F 38 °F 50 °F (2016)
Min Temperature 32 °F 26 °F 26 °F (2015)
Degree Days  
Heating Degree Days 28    
Moisture  
Dew Point 27 °F    
Average Humidity 71    
Maximum Humidity 100    
Minimum Humidity 42    
Precipitation  
Precipitation 0.09 in - - ()
Sea Level Pressure  
Sea Level Pressure 29.71 in    
Wind  
Wind Speed 6 mph (SSW)    
Max Wind Speed 16 mph    
Max Gust Speed 24 mph    
Visibility 8 miles    
Events Rain , Snow    
Averages and records for this station are not official NWS values.
T = Trace of Precipitation, MM = Missing Value Source: NWS Daily Summary

Daily Weather History Graph

Daily Weather History Graph

Search for Another Location

Airport or City:

Trip Planner

Search our weather history database for the weather conditions in past years. The results will help you decide how hot, cold, wet, or windy it might be!

Date:

Astronomy

Feb. 16, 2014 Rise Set
Actual Time 6:51 AM PST 5:08 PM PST
Civil Twilight 6:18 AM PST 5:40 PM PST
Nautical Twilight 5:41 AM PST 6:17 PM PST
Astronomical Twilight 5:05 AM PST 6:53 PM PST
Moon 7:23 PM PST (2/16) 7:11 AM PST (2/16)
Length of Visible Light 11h 21m
Length of Day
10h 17m
Full, 97% of the Moon is Illuminated
Feb 16
Full
Feb 22
Last Quarter
Mar 1
New
Mar 8
First Quarter
Mar 16
Full

Hourly Weather History & Observations

Time (PST) Temp. Windchill Dew Point Humidity Pressure Visibility Wind Dir Wind Speed Gust Speed Precip Events Conditions
12:15 AM 32.0 °F - 32.0 °F 100% 29.45 in 4.0 mi Calm Calm - 0.03 in Rain Light Rain
12:35 AM 33.8 °F - 32.0 °F 93% 29.45 in 9.0 mi Calm Calm - 0.03 in Rain Light Rain
12:55 AM 33.8 °F - 32.0 °F 93% 29.43 in 8.0 mi Calm Calm - 0.04 in Rain Light Rain
1:15 AM 35.6 °F - 32.0 °F 87% 29.44 in 10.0 mi Calm Calm - N/A   Overcast
1:35 AM 35.6 °F 31.7 °F 33.8 °F 93% 29.45 in 10.0 mi SSE 4.6 mph - N/A   Mostly Cloudy
1:55 AM 37.4 °F 32.1 °F 35.6 °F 93% 29.47 in 10.0 mi South 6.9 mph - N/A   Overcast
2:15 AM 37.4 °F 34.9 °F 35.6 °F 93% 29.48 in 10.0 mi South 3.5 mph - N/A   Mostly Cloudy
2:35 AM 37.4 °F 30.8 °F 35.6 °F 93% 29.49 in 10.0 mi SSW 9.2 mph 19.6 mph N/A   Overcast
2:55 AM 37.4 °F 30.3 °F 33.8 °F 87% 29.50 in 10.0 mi SSW 10.4 mph 24.2 mph N/A   Overcast
3:15 AM 37.4 °F 32.1 °F 32.0 °F 81% 29.52 in 10.0 mi SSW 6.9 mph 17.3 mph N/A   Overcast
3:35 AM 37.4 °F 28.9 °F 32.0 °F 81% 29.52 in 10.0 mi SSW 13.8 mph 23.0 mph N/A   Overcast
3:55 AM 37.4 °F 28.9 °F 32.0 °F 81% 29.53 in 10.0 mi SSW 13.8 mph 19.6 mph N/A   Mostly Cloudy
4:15 AM 37.4 °F 29.8 °F 32.0 °F 81% 29.55 in 10.0 mi SSW 11.5 mph 24.2 mph N/A   Mostly Cloudy
4:35 AM 35.6 °F 25.9 °F 30.2 °F 81% 29.55 in 10.0 mi SSW 16.1 mph 23.0 mph N/A   Mostly Cloudy
4:55 AM 35.6 °F 27.1 °F 28.4 °F 75% 29.55 in 10.0 mi SSW 12.7 mph 20.7 mph N/A   Scattered Clouds
5:15 AM 35.6 °F 28.6 °F 28.4 °F 75% 29.56 in 10.0 mi SSW 9.2 mph 18.4 mph N/A   Partly Cloudy
5:35 AM 35.6 °F 28.6 °F 26.6 °F 70% 29.56 in 10.0 mi SSW 9.2 mph 18.4 mph N/A   Partly Cloudy
5:55 AM 35.6 °F 29.2 °F 26.6 °F 70% 29.58 in 10.0 mi SSW 8.1 mph 16.1 mph N/A   Clear
6:15 AM 35.6 °F 29.9 °F 26.6 °F 70% 29.59 in 10.0 mi SW 6.9 mph 16.1 mph N/A   Mostly Cloudy
6:35 AM 35.6 °F 29.2 °F 26.6 °F 70% 29.61 in 10.0 mi SSW 8.1 mph - N/A   Mostly Cloudy
6:55 AM 35.6 °F 29.9 °F 28.4 °F 75% 29.63 in 10.0 mi South 6.9 mph - N/A   Overcast
7:15 AM 35.6 °F 32.8 °F 28.4 °F 75% 29.63 in 10.0 mi SW 3.5 mph - N/A   Overcast
7:35 AM 35.6 °F 31.7 °F 28.4 °F 75% 29.64 in 10.0 mi SW 4.6 mph - N/A   Overcast
7:55 AM 35.6 °F 32.8 °F 28.4 °F 75% 29.64 in 10.0 mi SSW 3.5 mph - N/A   Overcast
8:15 AM 35.6 °F 29.2 °F 28.4 °F 75% 29.66 in 9.0 mi SSW 8.1 mph 16.1 mph N/A   Mostly Cloudy
8:35 AM 35.6 °F 31.7 °F 28.4 °F 75% 29.67 in 10.0 mi SSW 4.6 mph - N/A   Mostly Cloudy
8:55 AM 35.6 °F 29.2 °F 28.4 °F 75% 29.68 in 10.0 mi SSW 8.1 mph - N/A Snow Light Snow
9:15 AM 37.4 °F 30.8 °F 28.4 °F 70% 29.68 in 7.0 mi SW 9.2 mph 17.3 mph N/A Snow Light Snow
9:35 AM 35.6 °F 26.6 °F 28.4 °F 75% 29.68 in 10.0 mi SSW 13.8 mph 21.9 mph N/A Snow Light Snow
9:55 AM 35.6 °F 27.5 °F 28.4 °F 75% 29.69 in 9.0 mi SSW 11.5 mph 18.4 mph N/A Snow Light Snow
10:15 AM 35.6 °F 26.6 °F 26.6 °F 70% 29.70 in 6.0 mi SSW 13.8 mph 23.0 mph N/A Snow Light Snow
10:35 AM 37.4 °F 30.8 °F 26.6 °F 65% 29.70 in 9.0 mi SW 9.2 mph 21.9 mph N/A   Partly Cloudy
10:55 AM 37.4 °F 29.8 °F 24.8 °F 60% 29.71 in 10.0 mi SW 11.5 mph 18.4 mph N/A Rain Light Rain
11:15 AM 35.6 °F 28.6 °F 26.6 °F 70% 29.72 in 9.0 mi SSW 9.2 mph 20.7 mph N/A Rain Light Rain
11:35 AM 37.4 °F 29.3 °F 24.8 °F 60% 29.72 in 10.0 mi SSW 12.7 mph 21.9 mph N/A   Scattered Clouds
11:55 AM 35.6 °F 28.0 °F 26.6 °F 70% 29.73 in 5.0 mi SSW 10.4 mph 23.0 mph N/A Rain Light Rain
12:15 PM 35.6 °F 29.2 °F 24.8 °F 65% 29.74 in 8.0 mi SW 8.1 mph 19.6 mph N/A Rain Light Rain
12:35 PM 35.6 °F 28.6 °F 24.8 °F 65% 29.75 in 5.0 mi SSW 9.2 mph 18.4 mph N/A Snow Light Snow
12:55 PM 37.4 °F 31.4 °F 24.8 °F 60% 29.76 in 10.0 mi SW 8.1 mph - N/A Snow Light Snow
1:15 PM 35.6 °F 29.9 °F 24.8 °F 65% 29.77 in 10.0 mi SW 6.9 mph - N/A   Partly Cloudy
1:35 PM 37.4 °F 29.3 °F 23.0 °F 56% 29.77 in 10.0 mi SSW 12.7 mph 18.4 mph N/A   Scattered Clouds
1:55 PM 37.4 °F 32.1 °F 21.2 °F 52% 29.77 in 10.0 mi SSW 6.9 mph 17.3 mph N/A   Mostly Cloudy
2:15 PM 39.2 °F 31.6 °F 19.4 °F 45% 29.77 in 10.0 mi SSW 12.7 mph 17.3 mph N/A   Mostly Cloudy
2:35 PM 41.0 °F 35.8 °F 19.4 °F 42% 29.78 in 10.0 mi South 8.1 mph - N/A   Mostly Cloudy
2:55 PM 41.0 °F 34.3 °F 19.4 °F 42% 29.80 in 10.0 mi SSW 11.5 mph 21.9 mph N/A   Overcast
3:15 PM 41.0 °F 35.8 °F 21.2 °F 45% 29.81 in 10.0 mi SSW 8.1 mph 19.6 mph N/A   Overcast
3:35 PM 41.0 °F 36.4 °F 21.2 °F 45% 29.83 in 10.0 mi SSW 6.9 mph - N/A   Overcast
3:55 PM 41.0 °F 37.1 °F 19.4 °F 42% 29.84 in 10.0 mi SSW 5.8 mph - N/A   Overcast
4:15 PM 39.2 °F 37.0 °F 21.2 °F 49% 29.85 in 10.0 mi SSE 3.5 mph - N/A   Overcast
4:35 PM 39.2 °F 35.0 °F 21.2 °F 49% 29.87 in 10.0 mi South 5.8 mph - N/A   Overcast
4:55 PM 37.4 °F 33.8 °F 19.4 °F 48% 29.88 in 10.0 mi South 4.6 mph - N/A   Overcast
5:15 PM 37.4 °F 31.4 °F 21.2 °F 52% 29.88 in 10.0 mi South 8.1 mph - N/A   Overcast
5:35 PM 37.4 °F 30.3 °F 21.2 °F 52% 29.89 in 10.0 mi South 10.4 mph 18.4 mph N/A   Overcast
5:55 PM 37.4 °F 30.3 °F 21.2 °F 52% 29.89 in 10.0 mi SSW 10.4 mph 18.4 mph N/A   Overcast
6:15 PM 37.4 °F 31.4 °F 21.2 °F 52% 29.89 in 10.0 mi SSW 8.1 mph 16.1 mph N/A   Overcast
6:35 PM 37.4 °F 30.8 °F 19.4 °F 48% 29.90 in 10.0 mi SSW 9.2 mph - N/A   Overcast
6:55 PM 37.4 °F 33.8 °F 19.4 °F 48% 29.90 in 10.0 mi SSW 4.6 mph - N/A   Overcast
7:15 PM 37.4 °F - 19.4 °F 48% 29.89 in 10.0 mi Calm Calm - N/A   Overcast
7:35 PM 37.4 °F - 19.4 °F 48% 29.89 in 10.0 mi Calm Calm - N/A   Overcast
7:55 PM 37.4 °F 34.9 °F 21.2 °F 52% 29.90 in 10.0 mi SSW 3.5 mph - N/A   Overcast
8:15 PM 37.4 °F 32.1 °F 23.0 °F 56% 29.89 in 10.0 mi South 6.9 mph - N/A   Overcast
8:35 PM 35.6 °F 30.7 °F 28.4 °F 75% 29.88 in 4.0 mi South 5.8 mph 19.6 mph N/A Snow Light Snow
8:55 PM 33.8 °F 29.6 °F 30.2 °F 87% 29.87 in 9.0 mi South 4.6 mph - N/A Snow Light Snow
9:15 PM 35.6 °F 31.7 °F 28.4 °F 75% 29.86 in 8.0 mi South 4.6 mph - N/A Snow Light Snow
9:35 PM 33.8 °F 27.0 °F 30.2 °F 87% 29.85 in 4.0 mi South 8.1 mph - N/A Snow Light Snow
9:55 PM 32.0 °F 26.4 °F 32.0 °F 100% 29.84 in 2.0 mi South 5.8 mph - N/A Snow Light Snow
10:15 PM 32.0 °F 26.4 °F 32.0 °F 100% 29.82 in 1.5 mi SSW 5.8 mph - N/A Snow Light Snow
10:35 PM 32.0 °F 26.4 °F 32.0 °F 100% 29.81 in 1.5 mi SSW 5.8 mph - 0.01 in Snow Light Snow
10:55 PM 32.0 °F 28.7 °F 32.0 °F 100% 29.80 in 1.5 mi SSE 3.5 mph - 0.02 in Snow Light Snow
11:15 PM 32.0 °F - 32.0 °F 100% 29.78 in 1.2 mi Calm Calm - 0.01 in Snow Light Snow
11:35 PM 32.0 °F - 32.0 °F 100% 29.78 in 1.5 mi Calm Calm - 0.02 in Snow Light Snow
11:55 PM 32.0 °F - 32.0 °F 100% 29.78 in 2.5 mi Calm Calm - 0.03 in Snow Light Snow